Terminal Aerodrome Forecast
Issued by NWS

Home | Current Version | Previous Version | Text Only | Print | Product List | Glossary On
Versions: 1 2 3 4 5 6 7 8 9 10 11 12 13 14 15 16 17 18 19 20 21 22 23 24 25
000
FTUS41 KOKX 271400 AAA
TAFGON
TAF AMD
KGON 271446Z 2715/2812 35030G41KT 1/2SM SN FZFG BLSN VV012
     FM272300 34025G37KT 2SM -SN BLSN OVC010
     FM280100 34018G29KT 2SM -SN BLSN OVC015
     FM280400 33015G23KT 2SM -SHSN OVC035=

USA.gov is the U.S. government's official web portal to all federal, state and local government web resources and services.